createdAt,value
2023-03-11T00:02:26.293Z,74.42
2023-03-11T00:07:29.490Z,74.57
2023-03-11T00:12:32.299Z,74.83
2023-03-11T00:17:36.107Z,75.12
2023-03-11T00:22:38.215Z,75.39
2023-03-11T00:27:40.748Z,75.06
2023-03-11T00:32:43.802Z,75.40
2023-03-11T00:37:49.005Z,75.40
2023-03-11T00:42:53.210Z,75.00
2023-03-11T00:47:56.437Z,75.15
2023-03-11T00:53:18.770Z,75.40
2023-03-11T00:58:22.875Z,75.09
2023-03-11T01:03:29.149Z,75.03
2023-03-11T01:08:31.919Z,74.51
2023-03-11T01:13:34.806Z,74.41
2023-03-11T01:18:36.803Z,74.06
2023-03-11T01:23:40.402Z,74.28
2023-03-11T01:28:42.449Z,74.04
2023-03-11T01:33:44.526Z,74.23
2023-03-11T01:38:47.468Z,73.78
2023-03-11T01:43:54.554Z,73.36
2023-03-11T01:49:00.650Z,73.47
2023-03-11T01:54:21.664Z,73.09
2023-03-11T01:59:29.064Z,72.99
2023-03-11T02:04:34.726Z,72.75
2023-03-11T02:09:37.869Z,71.77
2023-03-11T02:14:45.156Z,71.14
2023-03-11T02:20:06.966Z,70.83
2023-03-11T02:25:29.276Z,70.94
2023-03-11T02:30:34.232Z,70.15
2023-03-11T02:35:36.677Z,70.23
2023-03-11T02:40:48.706Z,70.19
2023-03-11T02:45:52.528Z,71.04
2023-03-11T02:50:55.138Z,71.27
2023-03-11T02:55:57.665Z,71.49
2023-03-11T03:00:59.910Z,71.47
2023-03-11T03:06:02.395Z,71.81
2023-03-11T03:11:04.871Z,72.06
2023-03-11T03:16:07.899Z,72.14
2023-03-11T03:21:10.837Z,72.58
2023-03-11T03:26:14.496Z,73.01
2023-03-11T03:31:19.185Z,73.34
2023-03-11T03:36:21.453Z,73.41
2023-03-11T03:41:29.726Z,73.56
2023-03-11T03:46:32.957Z,74.55
2023-03-11T03:51:35.409Z,74.75
2023-03-11T03:56:43.624Z,75.30
2023-03-11T04:01:46.711Z,75.99
2023-03-11T04:06:50.789Z,76.72
2023-03-11T04:11:53.804Z,77.32
2023-03-11T04:16:57.890Z,78.15
2023-03-11T04:22:01.701Z,78.56
2023-03-11T04:27:05.499Z,78.70
2023-03-11T04:32:08.678Z,78.86
2023-03-11T04:37:12.431Z,80.04
2023-03-11T04:42:15.293Z,80.43
2023-03-11T04:47:18.007Z,80.55
2023-03-11T04:52:20.136Z,80.65
2023-03-11T04:57:25.292Z,80.72
2023-03-11T05:02:28.215Z,80.78
2023-03-11T05:07:34.283Z,80.99
2023-03-11T05:12:37.568Z,81.10
2023-03-11T05:17:40.501Z,81.46
2023-03-11T05:22:43.317Z,82.02
2023-03-11T05:27:49.202Z,82.43
2023-03-11T05:32:56.388Z,82.67
2023-03-11T05:38:05.312Z,83.10
2023-03-11T05:43:12.212Z,83.41
2023-03-11T05:48:17.653Z,83.43
2023-03-11T05:53:25.797Z,83.21
2023-03-11T05:58:32.769Z,83.04
2023-03-11T06:03:35.608Z,82.96
2023-03-11T06:08:46.051Z,83.20
2023-03-11T06:13:48.801Z,83.31
2023-03-11T06:18:52.277Z,83.43
2023-03-11T06:23:55.663Z,83.58
2023-03-11T06:28:58.851Z,83.78
2023-03-11T06:34:02.623Z,83.73
2023-03-11T06:39:05.864Z,83.79
2023-03-11T06:44:11.795Z,84.00
2023-03-11T06:49:14.845Z,84.27
2023-03-11T06:54:17.534Z,84.68
2023-03-11T06:59:20.905Z,84.80
2023-03-11T07:04:23.784Z,84.64
2023-03-11T07:09:29.603Z,84.53
2023-03-11T07:14:32.734Z,84.84
2023-03-11T07:19:35.299Z,84.71
2023-03-11T07:24:37.758Z,84.56
2023-03-11T07:29:42.721Z,85.96
2023-03-11T07:34:45.169Z,86.42
2023-03-11T07:39:47.912Z,86.54
2023-03-11T07:44:51.908Z,86.08
2023-03-11T07:49:57.389Z,86.01
2023-03-11T07:55:00.130Z,85.40
2023-03-11T08:00:02.788Z,85.13
2023-03-11T08:05:13.841Z,85.22
2023-03-11T08:10:15.842Z,84.92
2023-03-11T08:15:18.120Z,84.84
2023-03-11T08:20:26.157Z,84.81
2023-03-11T08:25:41.067Z,84.90
2023-03-11T08:30:43.398Z,85.04
2023-03-11T08:35:48.831Z,84.61
2023-03-11T08:40:51.932Z,84.48
2023-03-11T08:45:55.809Z,84.46
2023-03-11T08:51:01.226Z,84.93
2023-03-11T08:56:10.340Z,84.85
2023-03-11T09:01:14.560Z,85.10
2023-03-11T09:06:18.549Z,85.51
2023-03-11T09:11:43.531Z,85.10
2023-03-11T09:16:46.771Z,85.31
2023-03-11T09:21:49.706Z,85.40
2023-03-11T09:26:55.353Z,85.88
2023-03-11T09:32:00.902Z,86.01
2023-03-11T09:37:04.417Z,85.51
2023-03-11T09:42:31.884Z,85.54
2023-03-11T09:48:01.062Z,85.94
2023-03-11T09:53:11.875Z,85.94
2023-03-11T09:58:22.736Z,85.62
2023-03-11T10:03:36.762Z,86.01
2023-03-11T10:08:46.377Z,85.99
2023-03-11T10:13:57.195Z,86.20
2023-03-11T10:19:42.076Z,86.18
2023-03-11T10:25:12.332Z,86.00
2023-03-11T10:30:36.759Z,85.95
2023-03-11T10:35:42.843Z,86.19
2023-03-11T10:40:48.098Z,86.17
2023-03-11T10:45:54.084Z,86.25
2023-03-11T10:51:03.837Z,86.13
2023-03-11T10:56:06.622Z,85.87
2023-03-11T11:01:17.459Z,85.68
2023-03-11T11:06:30.202Z,86.07
2023-03-11T11:11:32.314Z,85.91
2023-03-11T11:16:35.708Z,85.99
2023-03-11T11:21:52.506Z,86.27
2023-03-11T11:27:29.558Z,86.63
2023-03-11T11:32:35.144Z,86.57
2023-03-11T11:37:41.742Z,86.58
2023-03-11T11:42:49.798Z,86.02
2023-03-11T11:48:00.345Z,86.34
2023-03-11T11:53:23.758Z,86.79
2023-03-11T11:58:26.728Z,86.87
2023-03-11T12:03:45.890Z,86.76
2023-03-11T12:09:11.606Z,87.07
2023-03-11T12:14:45.633Z,86.84
2023-03-11T12:20:18.665Z,86.89
2023-03-11T12:25:39.970Z,86.54
2023-03-11T12:30:58.224Z,85.90
2023-03-11T12:36:02.054Z,85.91
2023-03-11T12:41:07.084Z,85.00
2023-03-11T12:46:15.141Z,84.96
2023-03-11T12:51:27.504Z,85.48
2023-03-11T12:56:44.260Z,85.12
2023-03-11T13:02:14.620Z,85.49
2023-03-11T13:07:36.883Z,85.33
2023-03-11T13:12:48.788Z,85.04
2023-03-11T13:18:30.528Z,85.27
2023-03-11T13:23:38.485Z,84.56
2023-03-11T13:29:19.660Z,84.25
2023-03-11T13:34:35.553Z,84.22
2023-03-11T13:40:23.956Z,83.81
2023-03-11T13:45:38.609Z,83.86
2023-03-11T13:51:33.223Z,83.91
2023-03-11T13:56:44.749Z,83.99
2023-03-11T14:01:56.040Z,84.05
2023-03-11T14:07:00.230Z,83.30
2023-03-11T14:12:10.481Z,83.21
2023-03-11T14:17:19.805Z,82.58
2023-03-11T14:22:22.024Z,82.83
2023-03-11T14:27:24.835Z,82.62
2023-03-11T14:32:32.740Z,82.15
2023-03-11T14:37:37.923Z,82.22
2023-03-11T14:42:43.698Z,82.31
2023-03-11T14:47:59.686Z,82.20
2023-03-11T14:53:24.424Z,82.38
2023-03-11T14:59:06.450Z,82.85
2023-03-11T15:04:24.239Z,83.23
2023-03-11T15:09:28.393Z,83.44
2023-03-11T15:14:36.275Z,83.65
2023-03-11T15:19:38.535Z,83.85
2023-03-11T15:24:40.989Z,84.23
2023-03-11T15:29:52.480Z,84.23
2023-03-11T15:35:06.365Z,84.38
2023-03-11T15:40:43.832Z,84.49
2023-03-11T15:45:58.217Z,84.72
2023-03-11T15:51:00.817Z,84.90
2023-03-11T15:56:14.201Z,85.23
2023-03-11T16:01:18.925Z,84.81
2023-03-11T16:06:27.010Z,84.75
2023-03-11T16:11:32.716Z,84.61
2023-03-11T16:16:34.841Z,84.17
2023-03-11T16:21:41.688Z,84.04
2023-03-11T16:26:47.220Z,83.78
2023-03-11T16:31:50.000Z,83.75
2023-03-11T16:36:52.619Z,83.47
2023-03-11T16:41:55.327Z,82.63
2023-03-11T16:46:57.667Z,82.19
2023-03-11T16:51:59.860Z,81.98
2023-03-11T16:57:03.183Z,81.82
2023-03-11T17:02:07.079Z,81.68
2023-03-11T17:07:10.427Z,81.65
2023-03-11T17:12:15.877Z,81.62
2023-03-11T17:17:19.288Z,81.15
2023-03-11T17:22:23.151Z,80.91
2023-03-11T17:27:32.316Z,80.96
2023-03-11T17:32:35.443Z,81.11
2023-03-11T17:37:38.234Z,80.69
2023-03-11T17:42:41.699Z,81.24
2023-03-11T17:47:44.888Z,80.69
2023-03-11T17:52:47.821Z,80.73
2023-03-11T17:57:53.075Z,80.74
2023-03-11T18:02:58.339Z,80.43
2023-03-11T18:08:01.050Z,80.47
2023-03-11T18:13:03.856Z,80.15
2023-03-11T18:18:14.410Z,80.29
2023-03-11T18:23:24.692Z,80.26
2023-03-11T18:28:30.136Z,80.31
2023-03-11T18:33:33.010Z,80.28
2023-03-11T18:38:36.004Z,80.30
2023-03-11T18:43:41.652Z,80.58
2023-03-11T18:48:46.987Z,80.22
2023-03-11T18:53:54.418Z,80.07
2023-03-11T18:59:01.731Z,79.91
2023-03-11T19:04:03.997Z,79.66
2023-03-11T19:09:06.901Z,79.82
2023-03-11T19:14:10.093Z,79.43
2023-03-11T19:19:12.662Z,79.15
2023-03-11T19:24:15.379Z,79.11
2023-03-11T19:29:19.250Z,78.93
2023-03-11T19:34:29.420Z,78.98
2023-03-11T19:39:32.454Z,79.39
2023-03-11T19:44:34.479Z,79.39
2023-03-11T19:49:36.969Z,79.57
2023-03-11T19:54:42.507Z,79.30
2023-03-11T19:59:47.668Z,79.47
2023-03-11T20:04:49.882Z,79.48
2023-03-11T20:09:52.112Z,79.79
2023-03-11T20:14:54.243Z,79.50
2023-03-11T20:19:57.214Z,79.74
2023-03-11T20:24:59.556Z,79.76
2023-03-11T20:30:03.028Z,79.89
2023-03-11T20:35:07.170Z,80.14
2023-03-11T20:40:15.636Z,79.76
2023-03-11T20:45:24.759Z,79.93
2023-03-11T20:50:30.101Z,80.19
2023-03-11T20:55:37.778Z,80.15
2023-03-11T21:00:40.559Z,80.51
2023-03-11T21:05:43.263Z,80.31
2023-03-11T21:10:47.853Z,80.49
2023-03-11T21:15:56.025Z,80.41
2023-03-11T21:21:01.783Z,81.13
2023-03-11T21:26:04.979Z,81.08
2023-03-11T21:31:11.608Z,81.14
2023-03-11T21:36:17.347Z,81.17
2023-03-11T21:41:26.306Z,81.28
2023-03-11T21:46:32.405Z,81.27
2023-03-11T21:51:35.146Z,81.64
2023-03-11T21:56:40.209Z,81.55
2023-03-11T22:01:43.173Z,81.24
2023-03-11T22:06:46.349Z,81.51
2023-03-11T22:11:51.598Z,81.21
2023-03-11T22:16:54.113Z,81.49
2023-03-11T22:21:56.422Z,81.09
2023-03-11T22:26:59.286Z,81.47
2023-03-11T22:32:01.614Z,81.61
2023-03-11T22:37:04.428Z,81.11
2023-03-11T22:42:08.554Z,81.35
2023-03-11T22:47:12.359Z,81.39
2023-03-11T22:52:19.014Z,81.07
2023-03-11T22:57:21.712Z,81.03
2023-03-11T23:02:23.889Z,80.79
2023-03-11T23:07:26.910Z,81.20
2023-03-11T23:12:29.509Z,80.93
2023-03-11T23:17:44.500Z,80.90
2023-03-11T23:22:47.287Z,80.84
2023-03-11T23:27:58.425Z,80.73
2023-03-11T23:33:02.989Z,80.70
2023-03-11T23:38:05.781Z,80.33
2023-03-11T23:43:08.609Z,80.62
2023-03-11T23:48:11.044Z,80.60
2023-03-11T23:53:14.968Z,80.47
2023-03-11T23:58:19.177Z,80.74
